map of ILI home
ILI - Airport
Location
City:  Iliamna, Alaska, United States
ICAO:PAIL
IATA:ILI
FAA LID:ILI

Details
Type:Airport (Airfield)
Use:Public/Civil
Latitude:5945'20"N (59.755578)
Longitude:15455'04"W (-154.917751)
Datum:WGS 1984
Elevation:192 ft (59 m)
Variation:13.93E (WMM2015v2 magnetic declination)
-0.29 annual change
Runways:4
Longest:5086 × 100 ft (1550 × 30.5 m), paved

Time
Time Zone:UTC-9 (DST-8)
Local Time:

Weather
METAR:PAIL 041353Z AUTO 00000KT 1 1/2SM BR OVC007 01/01 A2999 RMK AO2 SLP157 T00060006 TSNO
TAF:PAIL 041358Z 0414/0512 VRB05KT 3SM BR BKN006 OVC015
TEMPO 0415/0417 1 1/2SM BR
FM041700 07005KT P6SM BKN040
FM050000 09010G18KT 5SM -RASN BR SCT015 BKN025
FM050600 13009KT 2SM -RA BR BKN007 OVC012

Related Locations
Nearby:
Farthest:FAAF: 10688 mi / 17201 km
Struisbaai [Andrew's Field Airport], WC, ZA

Find:

   beyond  
but within

Other Information
Maps:
NOTAMs:
Links:
Sources:

  
  • flag of United States
  • flag of Alaska
  

Sectional Chart

Flight Planning
at skyvector.com

Satellite Image

Google Maps Satellite view

 

Copyright © 2004-2019 Karl L. Swartz. All rights reserved.
The Great Circle Mapper name and logo are trademarks of the Great Circle Mapper.
All other trademarks mentioned herein belong to their respective owners.
Please see credits for attibutions and further copyright information.

  Follow gcmap on Facebook Follow gcmap on Twitter GCmap on LinkedIn

hCard Microformat

Geo Microformat